sensor_id;sensor_type;location;lat;lon;timestamp;P1;durP1;ratioP1;P2;durP2;ratioP2
69835;SDS011;57132;51.972;4.450;2023-04-19T00:01:49;42.33;;;19.00;;
69835;SDS011;57132;51.972;4.450;2023-04-19T00:04:14;39.88;;;19.10;;
69835;SDS011;57132;51.972;4.450;2023-04-19T00:06:40;40.55;;;18.17;;
69835;SDS011;57132;51.972;4.450;2023-04-19T00:09:06;44.80;;;20.30;;
69835;SDS011;57132;51.972;4.450;2023-04-19T00:11:32;39.97;;;18.52;;
69835;SDS011;57132;51.972;4.450;2023-04-19T00:13:57;39.40;;;19.08;;
69835;SDS011;57132;51.972;4.450;2023-04-19T00:16:23;39.55;;;18.38;;
69835;SDS011;57132;51.972;4.450;2023-04-19T00:18:49;40.20;;;18.35;;
69835;SDS011;57132;51.972;4.450;2023-04-19T00:21:14;43.92;;;19.95;;
69835;SDS011;57132;51.972;4.450;2023-04-19T00:23:41;41.38;;;18.98;;
69835;SDS011;57132;51.972;4.450;2023-04-19T00:26:07;39.65;;;17.58;;
69835;SDS011;57132;51.972;4.450;2023-04-19T00:28:32;42.85;;;18.17;;
69835;SDS011;57132;51.972;4.450;2023-04-19T00:30:59;39.20;;;18.65;;
69835;SDS011;57132;51.972;4.450;2023-04-19T00:33:24;41.05;;;19.05;;
69835;SDS011;57132;51.972;4.450;2023-04-19T00:35:49;44.00;;;18.80;;
69835;SDS011;57132;51.972;4.450;2023-04-19T00:38:14;49.08;;;19.90;;
69835;SDS011;57132;51.972;4.450;2023-04-19T00:40:40;41.70;;;19.13;;
69835;SDS011;57132;51.972;4.450;2023-04-19T00:43:05;43.40;;;19.27;;
69835;SDS011;57132;51.972;4.450;2023-04-19T00:45:31;46.50;;;18.90;;
69835;SDS011;57132;51.972;4.450;2023-04-19T00:47:59;39.22;;;18.45;;
69835;SDS011;57132;51.972;4.450;2023-04-19T00:50:25;47.47;;;20.27;;
69835;SDS011;57132;51.972;4.450;2023-04-19T00:52:50;47.35;;;19.92;;
69835;SDS011;57132;51.972;4.450;2023-04-19T00:55:19;45.97;;;19.02;;
69835;SDS011;57132;51.972;4.450;2023-04-19T00:57:44;40.17;;;19.17;;
69835;SDS011;57132;51.972;4.450;2023-04-19T01:00:10;43.17;;;18.70;;
69835;SDS011;57132;51.972;4.450;2023-04-19T01:02:36;42.38;;;18.67;;
69835;SDS011;57132;51.972;4.450;2023-04-19T01:05:01;47.78;;;20.67;;
69835;SDS011;57132;51.972;4.450;2023-04-19T01:07:27;46.05;;;19.77;;
69835;SDS011;57132;51.972;4.450;2023-04-19T01:09:54;42.40;;;20.15;;
69835;SDS011;57132;51.972;4.450;2023-04-19T01:12:19;44.22;;;19.10;;
69835;SDS011;57132;51.972;4.450;2023-04-19T01:14:44;48.25;;;20.23;;
69835;SDS011;57132;51.972;4.450;2023-04-19T01:17:10;45.00;;;20.77;;
69835;SDS011;57132;51.972;4.450;2023-04-19T01:19:37;42.88;;;18.65;;
69835;SDS011;57132;51.972;4.450;2023-04-19T01:22:02;46.72;;;21.52;;
69835;SDS011;57132;51.972;4.450;2023-04-19T01:24:29;50.78;;;22.80;;
69835;SDS011;57132;51.972;4.450;2023-04-19T01:26:54;47.45;;;21.52;;
69835;SDS011;57132;51.972;4.450;2023-04-19T01:29:20;45.67;;;21.27;;
69835;SDS011;57132;51.972;4.450;2023-04-19T01:31:47;46.83;;;21.60;;
69835;SDS011;57132;51.972;4.450;2023-04-19T01:34:17;47.97;;;21.50;;
69835;SDS011;57132;51.972;4.450;2023-04-19T01:36:47;48.67;;;20.90;;
69835;SDS011;57132;51.972;4.450;2023-04-19T01:39:12;50.00;;;21.75;;
69835;SDS011;57132;51.972;4.450;2023-04-19T01:41:38;47.22;;;20.95;;
69835;SDS011;57132;51.972;4.450;2023-04-19T01:44:03;51.15;;;21.85;;
69835;SDS011;57132;51.972;4.450;2023-04-19T01:46:28;46.35;;;22.85;;
69835;SDS011;57132;51.972;4.450;2023-04-19T01:48:54;48.63;;;21.67;;
69835;SDS011;57132;51.972;4.450;2023-04-19T01:51:19;53.90;;;22.98;;
69835;SDS011;57132;51.972;4.450;2023-04-19T01:53:46;52.40;;;22.58;;
69835;SDS011;57132;51.972;4.450;2023-04-19T01:56:16;47.25;;;21.10;;
69835;SDS011;57132;51.972;4.450;2023-04-19T01:58:41;52.55;;;22.58;;
69835;SDS011;57132;51.972;4.450;2023-04-19T02:01:07;54.25;;;23.38;;
69835;SDS011;57132;51.972;4.450;2023-04-19T02:03:36;55.67;;;21.92;;
69835;SDS011;57132;51.972;4.450;2023-04-19T02:06:02;46.88;;;20.05;;
69835;SDS011;57132;51.972;4.450;2023-04-19T02:08:27;45.63;;;20.33;;
69835;SDS011;57132;51.972;4.450;2023-04-19T02:10:52;50.17;;;21.58;;
69835;SDS011;57132;51.972;4.450;2023-04-19T02:13:18;48.65;;;21.30;;
69835;SDS011;57132;51.972;4.450;2023-04-19T02:15:43;50.58;;;22.40;;
69835;SDS011;57132;51.972;4.450;2023-04-19T02:18:08;44.90;;;20.10;;
69835;SDS011;57132;51.972;4.450;2023-04-19T02:20:34;51.25;;;20.02;;
69835;SDS011;57132;51.972;4.450;2023-04-19T02:22:59;53.05;;;20.50;;
69835;SDS011;57132;51.972;4.450;2023-04-19T02:25:24;47.63;;;20.77;;
69835;SDS011;57132;51.972;4.450;2023-04-19T02:27:50;48.42;;;22.25;;
69835;SDS011;57132;51.972;4.450;2023-04-19T02:30:15;51.70;;;20.58;;
69835;SDS011;57132;51.972;4.450;2023-04-19T02:32:40;55.75;;;22.98;;
69835;SDS011;57132;51.972;4.450;2023-04-19T02:35:07;53.00;;;21.35;;
69835;SDS011;57132;51.972;4.450;2023-04-19T02:37:32;45.88;;;20.92;;
69835;SDS011;57132;51.972;4.450;2023-04-19T02:39:58;53.80;;;21.77;;
69835;SDS011;57132;51.972;4.450;2023-04-19T02:42:23;50.58;;;22.35;;
69835;SDS011;57132;51.972;4.450;2023-04-19T02:44:48;58.30;;;22.25;;
69835;SDS011;57132;51.972;4.450;2023-04-19T02:47:14;54.20;;;21.98;;
69835;SDS011;57132;51.972;4.450;2023-04-19T02:49:39;55.00;;;22.55;;
69835;SDS011;57132;51.972;4.450;2023-04-19T02:52:05;52.53;;;23.20;;
69835;SDS011;57132;51.972;4.450;2023-04-19T02:54:31;49.30;;;22.25;;
69835;SDS011;57132;51.972;4.450;2023-04-19T02:56:57;52.00;;;23.20;;
69835;SDS011;57132;51.972;4.450;2023-04-19T02:59:22;59.08;;;23.25;;
69835;SDS011;57132;51.972;4.450;2023-04-19T03:01:48;54.65;;;24.50;;
69835;SDS011;57132;51.972;4.450;2023-04-19T03:04:13;55.20;;;23.20;;
69835;SDS011;57132;51.972;4.450;2023-04-19T03:06:38;51.95;;;22.95;;
69835;SDS011;57132;51.972;4.450;2023-04-19T03:09:05;54.78;;;24.88;;
69835;SDS011;57132;51.972;4.450;2023-04-19T03:11:31;55.28;;;22.15;;
69835;SDS011;57132;51.972;4.450;2023-04-19T03:13:56;63.17;;;23.98;;
69835;SDS011;57132;51.972;4.450;2023-04-19T03:16:21;54.83;;;24.85;;
69835;SDS011;57132;51.972;4.450;2023-04-19T03:18:47;53.83;;;22.35;;
69835;SDS011;57132;51.972;4.450;2023-04-19T03:21:12;70.82;;;23.40;;
69835;SDS011;57132;51.972;4.450;2023-04-19T03:23:37;58.50;;;25.13;;
69835;SDS011;57132;51.972;4.450;2023-04-19T03:26:03;61.65;;;24.20;;
69835;SDS011;57132;51.972;4.450;2023-04-19T03:28:28;57.00;;;23.40;;
69835;SDS011;57132;51.972;4.450;2023-04-19T03:30:54;60.58;;;25.40;;
69835;SDS011;57132;51.972;4.450;2023-04-19T03:33:19;61.78;;;26.50;;
69835;SDS011;57132;51.972;4.450;2023-04-19T03:35:44;60.15;;;25.73;;
69835;SDS011;57132;51.972;4.450;2023-04-19T03:38:10;63.28;;;24.80;;
69835;SDS011;57132;51.972;4.450;2023-04-19T03:40:38;57.97;;;24.02;;
69835;SDS011;57132;51.972;4.450;2023-04-19T03:43:03;58.25;;;23.38;;
69835;SDS011;57132;51.972;4.450;2023-04-19T03:45:29;61.47;;;22.58;;
69835;SDS011;57132;51.972;4.450;2023-04-19T03:47:54;61.28;;;24.00;;
69835;SDS011;57132;51.972;4.450;2023-04-19T03:50:19;62.75;;;24.00;;
69835;SDS011;57132;51.972;4.450;2023-04-19T03:52:45;55.72;;;23.63;;
69835;SDS011;57132;51.972;4.450;2023-04-19T03:55:10;58.90;;;24.80;;
69835;SDS011;57132;51.972;4.450;2023-04-19T03:57:36;69.07;;;25.92;;
69835;SDS011;57132;51.972;4.450;2023-04-19T04:00:02;65.72;;;25.25;;
69835;SDS011;57132;51.972;4.450;2023-04-19T04:02:31;63.53;;;24.58;;
69835;SDS011;57132;51.972;4.450;2023-04-19T04:04:57;58.47;;;25.00;;
69835;SDS011;57132;51.972;4.450;2023-04-19T04:07:22;63.30;;;25.20;;
69835;SDS011;57132;51.972;4.450;2023-04-19T04:09:48;65.20;;;25.08;;
69835;SDS011;57132;51.972;4.450;2023-04-19T04:12:14;58.17;;;23.23;;
69835;SDS011;57132;51.972;4.450;2023-04-19T04:14:40;54.45;;;23.02;;
69835;SDS011;57132;51.972;4.450;2023-04-19T04:17:05;61.58;;;24.00;;
69835;SDS011;57132;51.972;4.450;2023-04-19T04:19:30;59.65;;;24.45;;
69835;SDS011;57132;51.972;4.450;2023-04-19T04:21:56;63.65;;;24.88;;
69835;SDS011;57132;51.972;4.450;2023-04-19T04:24:21;58.90;;;24.40;;
69835;SDS011;57132;51.972;4.450;2023-04-19T04:26:47;65.10;;;24.75;;
69835;SDS011;57132;51.972;4.450;2023-04-19T04:29:14;61.85;;;24.73;;
69835;SDS011;57132;51.972;4.450;2023-04-19T04:31:40;51.92;;;22.08;;
69835;SDS011;57132;51.972;4.450;2023-04-19T04:34:05;63.55;;;23.75;;
69835;SDS011;57132;51.972;4.450;2023-04-19T04:36:33;55.60;;;23.02;;
69835;SDS011;57132;51.972;4.450;2023-04-19T04:38:59;54.80;;;23.75;;
69835;SDS011;57132;51.972;4.450;2023-04-19T04:41:25;52.55;;;24.25;;
69835;SDS011;57132;51.972;4.450;2023-04-19T04:43:51;57.47;;;24.58;;
69835;SDS011;57132;51.972;4.450;2023-04-19T04:46:17;61.30;;;22.40;;
69835;SDS011;57132;51.972;4.450;2023-04-19T04:48:42;47.40;;;21.65;;
69835;SDS011;57132;51.972;4.450;2023-04-19T04:51:08;56.78;;;21.90;;
69835;SDS011;57132;51.972;4.450;2023-04-19T04:53:33;65.82;;;24.08;;
69835;SDS011;57132;51.972;4.450;2023-04-19T04:55:58;57.60;;;23.23;;
69835;SDS011;57132;51.972;4.450;2023-04-19T04:58:24;55.53;;;22.35;;
69835;SDS011;57132;51.972;4.450;2023-04-19T05:00:50;61.78;;;23.98;;
69835;SDS011;57132;51.972;4.450;2023-04-19T05:03:15;58.67;;;21.92;;
69835;SDS011;57132;51.972;4.450;2023-04-19T05:05:41;55.42;;;23.05;;
69835;SDS011;57132;51.972;4.450;2023-04-19T05:08:06;57.35;;;22.33;;
69835;SDS011;57132;51.972;4.450;2023-04-19T05:10:31;55.28;;;22.52;;
69835;SDS011;57132;51.972;4.450;2023-04-19T05:12:57;46.03;;;20.48;;
69835;SDS011;57132;51.972;4.450;2023-04-19T05:15:22;47.40;;;20.33;;
69835;SDS011;57132;51.972;4.450;2023-04-19T05:17:47;50.58;;;20.27;;
69835;SDS011;57132;51.972;4.450;2023-04-19T05:20:13;50.42;;;19.73;;
69835;SDS011;57132;51.972;4.450;2023-04-19T05:22:39;49.40;;;19.65;;
69835;SDS011;57132;51.972;4.450;2023-04-19T05:25:05;50.35;;;20.38;;
69835;SDS011;57132;51.972;4.450;2023-04-19T05:27:31;50.15;;;19.10;;
69835;SDS011;57132;51.972;4.450;2023-04-19T05:29:56;44.20;;;19.55;;
69835;SDS011;57132;51.972;4.450;2023-04-19T05:32:21;42.05;;;19.00;;
69835;SDS011;57132;51.972;4.450;2023-04-19T05:34:47;48.35;;;19.83;;
69835;SDS011;57132;51.972;4.450;2023-04-19T05:37:12;47.78;;;19.40;;
69835;SDS011;57132;51.972;4.450;2023-04-19T05:39:37;48.75;;;20.10;;
69835;SDS011;57132;51.972;4.450;2023-04-19T05:42:03;51.72;;;19.80;;
69835;SDS011;57132;51.972;4.450;2023-04-19T05:44:28;48.63;;;20.70;;
69835;SDS011;57132;51.972;4.450;2023-04-19T05:46:53;47.70;;;19.73;;
69835;SDS011;57132;51.972;4.450;2023-04-19T05:49:19;42.63;;;19.08;;
69835;SDS011;57132;51.972;4.450;2023-04-19T05:51:45;46.47;;;20.48;;
69835;SDS011;57132;51.972;4.450;2023-04-19T05:54:10;42.95;;;17.42;;
69835;SDS011;57132;51.972;4.450;2023-04-19T05:56:38;46.20;;;18.48;;
69835;SDS011;57132;51.972;4.450;2023-04-19T05:59:03;41.78;;;17.20;;
69835;SDS011;57132;51.972;4.450;2023-04-19T06:01:28;43.63;;;17.95;;
69835;SDS011;57132;51.972;4.450;2023-04-19T06:03:54;39.53;;;16.20;;
69835;SDS011;57132;51.972;4.450;2023-04-19T06:06:20;40.22;;;17.50;;
69835;SDS011;57132;51.972;4.450;2023-04-19T06:08:46;46.35;;;18.80;;
69835;SDS011;57132;51.972;4.450;2023-04-19T06:11:12;46.15;;;18.42;;
69835;SDS011;57132;51.972;4.450;2023-04-19T06:13:37;41.40;;;16.95;;
69835;SDS011;57132;51.972;4.450;2023-04-19T06:16:02;35.05;;;16.63;;
69835;SDS011;57132;51.972;4.450;2023-04-19T06:18:28;36.33;;;15.60;;
69835;SDS011;57132;51.972;4.450;2023-04-19T06:20:53;32.85;;;16.23;;
69835;SDS011;57132;51.972;4.450;2023-04-19T06:23:18;34.13;;;15.88;;
69835;SDS011;57132;51.972;4.450;2023-04-19T06:25:44;35.53;;;16.42;;
69835;SDS011;57132;51.972;4.450;2023-04-19T06:28:12;31.88;;;15.10;;
69835;SDS011;57132;51.972;4.450;2023-04-19T06:30:38;32.17;;;16.33;;
69835;SDS011;57132;51.972;4.450;2023-04-19T06:33:03;37.47;;;17.80;;
69835;SDS011;57132;51.972;4.450;2023-04-19T06:35:29;34.80;;;16.50;;
69835;SDS011;57132;51.972;4.450;2023-04-19T06:37:54;30.23;;;16.15;;
69835;SDS011;57132;51.972;4.450;2023-04-19T06:40:20;38.05;;;18.17;;
69835;SDS011;57132;51.972;4.450;2023-04-19T06:42:45;35.78;;;16.50;;
69835;SDS011;57132;51.972;4.450;2023-04-19T06:45:10;30.45;;;15.55;;
69835;SDS011;57132;51.972;4.450;2023-04-19T06:47:36;33.42;;;16.08;;
69835;SDS011;57132;51.972;4.450;2023-04-19T06:50:01;29.27;;;15.60;;
69835;SDS011;57132;51.972;4.450;2023-04-19T06:52:27;29.73;;;15.73;;
69835;SDS011;57132;51.972;4.450;2023-04-19T06:54:53;32.05;;;15.80;;
69835;SDS011;57132;51.972;4.450;2023-04-19T06:57:18;28.48;;;14.90;;
69835;SDS011;57132;51.972;4.450;2023-04-19T06:59:44;32.65;;;14.35;;
69835;SDS011;57132;51.972;4.450;2023-04-19T07:02:09;32.70;;;15.45;;
69835;SDS011;57132;51.972;4.450;2023-04-19T07:04:35;28.27;;;15.55;;
69835;SDS011;57132;51.972;4.450;2023-04-19T07:07:01;25.42;;;14.32;;
69835;SDS011;57132;51.972;4.450;2023-04-19T07:09:27;29.58;;;14.95;;
69835;SDS011;57132;51.972;4.450;2023-04-19T07:11:52;30.67;;;14.43;;
69835;SDS011;57132;51.972;4.450;2023-04-19T07:14:18;27.02;;;13.98;;
69835;SDS011;57132;51.972;4.450;2023-04-19T07:16:44;25.58;;;14.38;;
69835;SDS011;57132;51.972;4.450;2023-04-19T07:19:10;30.10;;;15.52;;
69835;SDS011;57132;51.972;4.450;2023-04-19T07:21:35;26.00;;;14.20;;
69835;SDS011;57132;51.972;4.450;2023-04-19T07:24:02;24.45;;;13.88;;
69835;SDS011;57132;51.972;4.450;2023-04-19T07:26:28;30.15;;;14.57;;
69835;SDS011;57132;51.972;4.450;2023-04-19T07:28:53;27.00;;;14.07;;
69835;SDS011;57132;51.972;4.450;2023-04-19T07:31:19;32.45;;;15.20;;
69835;SDS011;57132;51.972;4.450;2023-04-19T07:33:46;24.00;;;13.32;;
69835;SDS011;57132;51.972;4.450;2023-04-19T07:36:14;23.08;;;14.00;;
69835;SDS011;57132;51.972;4.450;2023-04-19T07:38:39;27.52;;;14.77;;
69835;SDS011;57132;51.972;4.450;2023-04-19T07:41:05;26.50;;;13.75;;
69835;SDS011;57132;51.972;4.450;2023-04-19T07:43:30;24.45;;;14.35;;
69835;SDS011;57132;51.972;4.450;2023-04-19T07:45:57;23.45;;;13.27;;
69835;SDS011;57132;51.972;4.450;2023-04-19T07:48:22;24.73;;;13.93;;
69835;SDS011;57132;51.972;4.450;2023-04-19T07:50:48;29.88;;;14.52;;
69835;SDS011;57132;51.972;4.450;2023-04-19T07:53:13;27.90;;;14.48;;
69835;SDS011;57132;51.972;4.450;2023-04-19T07:55:39;24.90;;;13.60;;
69835;SDS011;57132;51.972;4.450;2023-04-19T07:58:04;23.83;;;13.32;;
69835;SDS011;57132;51.972;4.450;2023-04-19T08:00:29;23.25;;;12.80;;
69835;SDS011;57132;51.972;4.450;2023-04-19T08:02:55;24.25;;;13.15;;
69835;SDS011;57132;51.972;4.450;2023-04-19T08:05:21;22.13;;;13.40;;
69835;SDS011;57132;51.972;4.450;2023-04-19T08:07:47;24.67;;;12.57;;
69835;SDS011;57132;51.972;4.450;2023-04-19T08:10:12;21.20;;;11.85;;
69835;SDS011;57132;51.972;4.450;2023-04-19T08:12:38;26.08;;;12.63;;
69835;SDS011;57132;51.972;4.450;2023-04-19T08:15:05;20.05;;;11.43;;
69835;SDS011;57132;51.972;4.450;2023-04-19T08:17:32;21.88;;;11.98;;
69835;SDS011;57132;51.972;4.450;2023-04-19T08:19:57;20.55;;;12.00;;
69835;SDS011;57132;51.972;4.450;2023-04-19T08:22:23;19.27;;;10.88;;
69835;SDS011;57132;51.972;4.450;2023-04-19T08:24:49;19.63;;;11.32;;
69835;SDS011;57132;51.972;4.450;2023-04-19T08:27:15;19.85;;;11.27;;
69835;SDS011;57132;51.972;4.450;2023-04-19T08:29:40;20.05;;;10.95;;
69835;SDS011;57132;51.972;4.450;2023-04-19T08:32:06;20.00;;;11.40;;
69835;SDS011;57132;51.972;4.450;2023-04-19T08:34:34;22.42;;;11.77;;
69835;SDS011;57132;51.972;4.450;2023-04-19T08:37:01;20.33;;;11.75;;
69835;SDS011;57132;51.972;4.450;2023-04-19T08:39:27;18.30;;;10.80;;
69835;SDS011;57132;51.972;4.450;2023-04-19T08:41:52;19.70;;;10.45;;
69835;SDS011;57132;51.972;4.450;2023-04-19T08:44:20;17.75;;;10.57;;
69835;SDS011;57132;51.972;4.450;2023-04-19T08:46:47;15.88;;;10.50;;
69835;SDS011;57132;51.972;4.450;2023-04-19T08:49:14;22.38;;;11.15;;
69835;SDS011;57132;51.972;4.450;2023-04-19T08:51:40;19.63;;;10.93;;
69835;SDS011;57132;51.972;4.450;2023-04-19T08:54:06;17.58;;;10.82;;
69835;SDS011;57132;51.972;4.450;2023-04-19T08:56:33;22.05;;;10.65;;
69835;SDS011;57132;51.972;4.450;2023-04-19T08:58:59;20.08;;;10.70;;
69835;SDS011;57132;51.972;4.450;2023-04-19T09:01:24;19.50;;;10.40;;
69835;SDS011;57132;51.972;4.450;2023-04-19T09:03:50;16.52;;;10.00;;
69835;SDS011;57132;51.972;4.450;2023-04-19T09:06:15;13.00;;;8.77;;
69835;SDS011;57132;51.972;4.450;2023-04-19T09:08:41;17.88;;;9.77;;
69835;SDS011;57132;51.972;4.450;2023-04-19T09:11:06;14.30;;;8.70;;
69835;SDS011;57132;51.972;4.450;2023-04-19T09:13:32;12.93;;;8.82;;
69835;SDS011;57132;51.972;4.450;2023-04-19T09:16:04;20.13;;;8.43;;
69835;SDS011;57132;51.972;4.450;2023-04-19T09:18:32;13.15;;;8.20;;
69835;SDS011;57132;51.972;4.450;2023-04-19T09:20:57;13.27;;;7.55;;
69835;SDS011;57132;51.972;4.450;2023-04-19T09:23:23;13.70;;;7.82;;
69835;SDS011;57132;51.972;4.450;2023-04-19T09:25:51;14.75;;;7.95;;
69835;SDS011;57132;51.972;4.450;2023-04-19T09:28:16;10.77;;;6.50;;
69835;SDS011;57132;51.972;4.450;2023-04-19T09:30:42;11.95;;;7.85;;
69835;SDS011;57132;51.972;4.450;2023-04-19T09:33:07;17.70;;;7.88;;
69835;SDS011;57132;51.972;4.450;2023-04-19T09:35:39;13.07;;;7.32;;
69835;SDS011;57132;51.972;4.450;2023-04-19T09:38:14;19.33;;;7.50;;
69835;SDS011;57132;51.972;4.450;2023-04-19T09:40:40;11.40;;;6.95;;
69835;SDS011;57132;51.972;4.450;2023-04-19T09:43:06;12.40;;;7.00;;
69835;SDS011;57132;51.972;4.450;2023-04-19T09:45:42;11.52;;;7.13;;
69835;SDS011;57132;51.972;4.450;2023-04-19T09:48:08;9.43;;;6.13;;
69835;SDS011;57132;51.972;4.450;2023-04-19T09:50:35;16.17;;;6.80;;
69835;SDS011;57132;51.972;4.450;2023-04-19T09:53:01;11.57;;;5.95;;
69835;SDS011;57132;51.972;4.450;2023-04-19T09:55:27;13.18;;;6.00;;
69835;SDS011;57132;51.972;4.450;2023-04-19T09:57:53;18.95;;;6.90;;
69835;SDS011;57132;51.972;4.450;2023-04-19T10:00:19;11.45;;;5.88;;
69835;SDS011;57132;51.972;4.450;2023-04-19T10:02:45;10.27;;;5.55;;
69835;SDS011;57132;51.972;4.450;2023-04-19T10:05:18;13.85;;;5.10;;
69835;SDS011;57132;51.972;4.450;2023-04-19T10:07:45;9.30;;;5.78;;
69835;SDS011;57132;51.972;4.450;2023-04-19T10:10:11;8.57;;;5.30;;
69835;SDS011;57132;51.972;4.450;2023-04-19T10:12:36;12.30;;;5.93;;
69835;SDS011;57132;51.972;4.450;2023-04-19T10:15:02;9.43;;;5.45;;
69835;SDS011;57132;51.972;4.450;2023-04-19T10:17:29;13.93;;;5.32;;
69835;SDS011;57132;51.972;4.450;2023-04-19T10:20:00;12.13;;;5.50;;
69835;SDS011;57132;51.972;4.450;2023-04-19T10:22:31;11.30;;;5.40;;
69835;SDS011;57132;51.972;4.450;2023-04-19T10:25:12;12.02;;;5.32;;
69835;SDS011;57132;51.972;4.450;2023-04-19T10:27:39;11.52;;;5.80;;
69835;SDS011;57132;51.972;4.450;2023-04-19T10:30:16;11.98;;;5.47;;
69835;SDS011;57132;51.972;4.450;2023-04-19T10:32:43;11.82;;;5.40;;
69835;SDS011;57132;51.972;4.450;2023-04-19T10:35:16;10.43;;;5.07;;
69835;SDS011;57132;51.972;4.450;2023-04-19T10:43:31;9.68;;;4.50;;
69835;SDS011;57132;51.972;4.450;2023-04-19T10:48:32;8.02;;;4.32;;
69835;SDS011;57132;51.972;4.450;2023-04-19T10:51:15;9.18;;;4.10;;
69835;SDS011;57132;51.972;4.450;2023-04-19T10:56:15;6.43;;;3.70;;
69835;SDS011;57132;51.972;4.450;2023-04-19T11:01:42;7.65;;;3.80;;
69835;SDS011;57132;51.972;4.450;2023-04-19T11:09:25;5.93;;;3.50;;
69835;SDS011;57132;51.972;4.450;2023-04-19T11:11:52;6.47;;;3.42;;
69835;SDS011;57132;51.972;4.450;2023-04-19T11:14:21;5.35;;;3.10;;
69835;SDS011;57132;51.972;4.450;2023-04-19T11:16:48;6.50;;;3.70;;
69835;SDS011;57132;51.972;4.450;2023-04-19T11:19:14;7.10;;;3.70;;
69835;SDS011;57132;51.972;4.450;2023-04-19T11:21:40;8.13;;;3.55;;
69835;SDS011;57132;51.972;4.450;2023-04-19T11:24:06;9.10;;;3.70;;
69835;SDS011;57132;51.972;4.450;2023-04-19T11:26:35;6.03;;;3.45;;
69835;SDS011;57132;51.972;4.450;2023-04-19T11:29:01;8.35;;;3.85;;
69835;SDS011;57132;51.972;4.450;2023-04-19T11:31:27;8.85;;;3.65;;
69835;SDS011;57132;51.972;4.450;2023-04-19T11:33:52;7.93;;;4.40;;
69835;SDS011;57132;51.972;4.450;2023-04-19T11:36:18;7.78;;;3.80;;
69835;SDS011;57132;51.972;4.450;2023-04-19T11:38:47;11.43;;;3.80;;
69835;SDS011;57132;51.972;4.450;2023-04-19T11:41:13;11.48;;;4.50;;
69835;SDS011;57132;51.972;4.450;2023-04-19T11:43:39;9.35;;;4.40;;
69835;SDS011;57132;51.972;4.450;2023-04-19T11:46:09;8.73;;;4.30;;
69835;SDS011;57132;51.972;4.450;2023-04-19T11:48:35;11.68;;;5.50;;
69835;SDS011;57132;51.972;4.450;2023-04-19T11:51:02;11.63;;;4.70;;
69835;SDS011;57132;51.972;4.450;2023-04-19T11:53:29;8.77;;;3.70;;
69835;SDS011;57132;51.972;4.450;2023-04-19T11:55:57;9.75;;;4.70;;
69835;SDS011;57132;51.972;4.450;2023-04-19T11:58:28;9.20;;;4.10;;
69835;SDS011;57132;51.972;4.450;2023-04-19T12:00:55;9.43;;;4.22;;
69835;SDS011;57132;51.972;4.450;2023-04-19T12:03:22;7.78;;;3.90;;
69835;SDS011;57132;51.972;4.450;2023-04-19T12:06:01;8.80;;;4.00;;
69835;SDS011;57132;51.972;4.450;2023-04-19T12:08:37;7.00;;;3.55;;
69835;SDS011;57132;51.972;4.450;2023-04-19T12:11:06;7.03;;;3.17;;
69835;SDS011;57132;51.972;4.450;2023-04-19T12:13:32;6.30;;;3.42;;
69835;SDS011;57132;51.972;4.450;2023-04-19T12:15:58;9.63;;;3.40;;
69835;SDS011;57132;51.972;4.450;2023-04-19T12:18:25;14.68;;;5.82;;
69835;SDS011;57132;51.972;4.450;2023-04-19T12:20:51;5.95;;;3.33;;
69835;SDS011;57132;51.972;4.450;2023-04-19T12:23:18;6.22;;;3.60;;
69835;SDS011;57132;51.972;4.450;2023-04-19T12:25:45;7.20;;;3.60;;
69835;SDS011;57132;51.972;4.450;2023-04-19T12:28:12;9.13;;;4.00;;
69835;SDS011;57132;51.972;4.450;2023-04-19T12:30:40;9.05;;;3.85;;
69835;SDS011;57132;51.972;4.450;2023-04-19T12:33:06;7.05;;;3.20;;
69835;SDS011;57132;51.972;4.450;2023-04-19T12:35:33;9.02;;;3.50;;
69835;SDS011;57132;51.972;4.450;2023-04-19T12:38:00;5.93;;;3.35;;
69835;SDS011;57132;51.972;4.450;2023-04-19T12:40:26;6.85;;;3.33;;
69835;SDS011;57132;51.972;4.450;2023-04-19T12:42:53;8.80;;;4.55;;
69835;SDS011;57132;51.972;4.450;2023-04-19T12:45:18;9.60;;;3.70;;
69835;SDS011;57132;51.972;4.450;2023-04-19T12:47:44;7.55;;;3.50;;
69835;SDS011;57132;51.972;4.450;2023-04-19T12:50:11;10.18;;;3.92;;
69835;SDS011;57132;51.972;4.450;2023-04-19T12:52:37;10.00;;;4.05;;
69835;SDS011;57132;51.972;4.450;2023-04-19T12:55:03;10.60;;;3.63;;
69835;SDS011;57132;51.972;4.450;2023-04-19T12:57:28;8.50;;;4.03;;
69835;SDS011;57132;51.972;4.450;2023-04-19T12:59:54;6.95;;;3.83;;
69835;SDS011;57132;51.972;4.450;2023-04-19T13:02:20;5.97;;;3.88;;
69835;SDS011;57132;51.972;4.450;2023-04-19T13:04:45;13.13;;;3.88;;
69835;SDS011;57132;51.972;4.450;2023-04-19T13:07:11;9.20;;;4.30;;
69835;SDS011;57132;51.972;4.450;2023-04-19T13:09:37;10.32;;;4.53;;
69835;SDS011;57132;51.972;4.450;2023-04-19T13:12:03;9.43;;;4.55;;
69835;SDS011;57132;51.972;4.450;2023-04-19T13:14:29;10.13;;;4.05;;
69835;SDS011;57132;51.972;4.450;2023-04-19T13:16:55;10.50;;;4.20;;
69835;SDS011;57132;51.972;4.450;2023-04-19T13:19:20;6.80;;;3.80;;
69835;SDS011;57132;51.972;4.450;2023-04-19T13:21:47;10.73;;;4.38;;
69835;SDS011;57132;51.972;4.450;2023-04-19T13:24:12;10.57;;;4.30;;
69835;SDS011;57132;51.972;4.450;2023-04-19T13:26:37;9.75;;;4.50;;
69835;SDS011;57132;51.972;4.450;2023-04-19T13:29:03;7.28;;;4.57;;
69835;SDS011;57132;51.972;4.450;2023-04-19T13:31:28;8.20;;;4.28;;
69835;SDS011;57132;51.972;4.450;2023-04-19T13:33:54;9.95;;;4.38;;
69835;SDS011;57132;51.972;4.450;2023-04-19T13:36:20;10.15;;;4.35;;
69835;SDS011;57132;51.972;4.450;2023-04-19T13:38:46;6.93;;;4.25;;
69835;SDS011;57132;51.972;4.450;2023-04-19T13:41:11;10.35;;;4.30;;
69835;SDS011;57132;51.972;4.450;2023-04-19T13:43:37;10.18;;;4.50;;
69835;SDS011;57132;51.972;4.450;2023-04-19T13:46:03;8.40;;;4.85;;
69835;SDS011;57132;51.972;4.450;2023-04-19T13:48:28;16.63;;;4.63;;
69835;SDS011;57132;51.972;4.450;2023-04-19T13:50:57;7.78;;;4.70;;
69835;SDS011;57132;51.972;4.450;2023-04-19T13:53:24;14.05;;;5.22;;
69835;SDS011;57132;51.972;4.450;2023-04-19T13:55:51;9.45;;;5.03;;
69835;SDS011;57132;51.972;4.450;2023-04-19T13:58:17;8.63;;;5.80;;
69835;SDS011;57132;51.972;4.450;2023-04-19T14:00:43;14.07;;;5.75;;
69835;SDS011;57132;51.972;4.450;2023-04-19T14:03:12;13.13;;;6.15;;
69835;SDS011;57132;51.972;4.450;2023-04-19T14:05:37;13.30;;;6.05;;
69835;SDS011;57132;51.972;4.450;2023-04-19T14:08:04;12.68;;;5.97;;
69835;SDS011;57132;51.972;4.450;2023-04-19T14:10:30;7.35;;;4.90;;
69835;SDS011;57132;51.972;4.450;2023-04-19T14:12:55;10.40;;;5.82;;
69835;SDS011;57132;51.972;4.450;2023-04-19T14:15:21;8.68;;;5.82;;
69835;SDS011;57132;51.972;4.450;2023-04-19T14:17:47;9.88;;;5.93;;
69835;SDS011;57132;51.972;4.450;2023-04-19T14:20:13;13.38;;;5.85;;
69835;SDS011;57132;51.972;4.450;2023-04-19T14:22:40;10.30;;;5.60;;
69835;SDS011;57132;51.972;4.450;2023-04-19T14:25:05;10.88;;;5.43;;
69835;SDS011;57132;51.972;4.450;2023-04-19T14:27:31;12.75;;;6.13;;
69835;SDS011;57132;51.972;4.450;2023-04-19T14:29:57;16.80;;;5.97;;
69835;SDS011;57132;51.972;4.450;2023-04-19T14:32:22;10.45;;;5.28;;
69835;SDS011;57132;51.972;4.450;2023-04-19T14:34:48;12.40;;;5.75;;
69835;SDS011;57132;51.972;4.450;2023-04-19T14:37:13;10.90;;;5.50;;
69835;SDS011;57132;51.972;4.450;2023-04-19T14:39:38;13.98;;;5.93;;
69835;SDS011;57132;51.972;4.450;2023-04-19T14:42:04;18.77;;;5.97;;